Home > Products > Valid Products > TAF

000
FTUS43 KICT 232321
TAFRSL
TAF
KRSL 232321Z 2400/2424 34014G20KT P6SM BKN150
     FM240200 32015G22KT P6SM SCT040
     FM241500 31018G25KT P6SM SKC=



000
FTUS43 KICT 232321
TAFSLN
TAF
KSLN 232321Z 2400/2424 33014G20KT P6SM BKN100
     FM240500 30014KT P6SM BKN040
     FM241500 31018G25KT P6SM SKC=



000
FTUS43 KICT 232321
TAFCNU
TAF
KCNU 232321Z 2400/2424 33024G33KT P6SM -RA SCT015 OVC025
      TEMPO 2400/2402 OVC015
     FM240500 31017G24KT P6SM SCT060 BKN100
     FM240900 29014KT P6SM BKN040=



000
FTUS43 KICT 232321
TAFICT
TAF
KICT 232321Z 2400/2424 34024G36KT P6SM -RADZ SCT015 OVC025
      TEMPO 2400/2401 OVC015
     FM240100 33018G25KT P6SM SCT060 BKN100
     FM240600 30014KT P6SM SCT040
     FM241500 30018G25KT P6SM SKC=



000
FTUS43 KICT 232321
TAFHUT
TAF
KHUT 232321Z 2400/2424 33015G22KT P6SM SCT060 BKN100
     FM240500 30014KT P6SM SCT040
     FM241500 30018G25KT P6SM SKC=



000
FTUS43 KICT 232303 AAC
TAFICT
TAF AMD
KICT 232303Z 2323/2418 34022G34KT P6SM -RADZ SCT015 OVC025
      TEMPO 2323/2324 OVC015
     FM240100 33018G25KT P6SM SCT060 BKN100
     FM240600 30014KT P6SM SCT040=



000
FTUS43 KICT 232254 AAB
TAFCNU
TAF AMD
KCNU 232254Z 2323/2418 34020G30KT P6SM -RADZ SCT015 OVC025
      TEMPO 2323/2324 OVC015
     FM240000 33024G33KT P6SM -RA SCT015 OVC025
     FM240500 31017G24KT P6SM SCT060 BKN100
     FM240900 29014KT P6SM BKN040=



000
FTUS43 KICT 231954 AAA
TAFSLN
TAF AMD
KSLN 231954Z 2320/2418 34026G35KT P6SM -RADZ SCT025 BKN035
      TEMPO 2320/2322 SCT015 OVC025
     FM240000 33017G26KT P6SM SCT060 BKN100
     FM240500 30014KT P6SM BKN040=



000
FTUS43 KICT 231954 AAA
TAFSLN
TAF AMD
KSLN 231954Z 2320/2418 34026G35KT P6SM -RADZ SCT025 BKN035
      TEMPO 2320/2322 SCT015 OVC025
     FM240000 33017G26KT P6SM SCT060 BKN100
     FM240500 30014KT P6SM BKN040=



000
FTUS43 KICT 231952 AAA
TAFCNU
TAF AMD
KCNU 231952Z 2320/2418 26008KT P6SM -RADZ SCT008 BKN015
     FM232100 34011KT P6SM -RADZ SCT015 OVC025
     FM240000 33024G33KT P6SM -RA SCT015 OVC025
     FM240500 31017G24KT P6SM SCT060 BKN100
     FM240900 29014KT P6SM BKN040=



000
FTUS43 KICT 231947 AAB
TAFICT
TAF AMD
KICT 231947Z 2320/2418 34028G37KT P6SM -RADZ SCT015 OVC025
      TEMPO 2320/2322 OVC015
     FM240100 33018G25KT P6SM SCT060 BKN100
     FM240600 30014KT P6SM SCT040=



000
FTUS43 KICT 231909 AAA
TAFICT
TAF AMD
KICT 231909Z 2319/2418 34027G37KT P6SM -RADZ SCT015 OVC025
     FM240100 33018G25KT P6SM SCT060 BKN100
     FM240600 30014KT P6SM SCT040=



000
FTUS43 KICT 231728
TAFCNU
TAF
KCNU 231728Z 2318/2418 19014KT P6SM SCT015 OVC025
     FM232000 19006KT P6SM -RADZ SCT015 OVC025
     FM240000 33024G33KT P6SM -RA SCT015 OVC025
     FM240500 31017G24KT P6SM SCT060 BKN100
     FM240900 29014KT P6SM BKN040=



000
FTUS43 KICT 231728
TAFHUT
TAF
KHUT 231728Z 2318/2418 34027G37KT P6SM -RADZ SCT025 OVC035
     FM240000 33018G25KT P6SM SCT060 BKN100
     FM240500 30014KT P6SM SCT040=



000
FTUS43 KICT 231728
TAFICT
TAF
KICT 231728Z 2318/2418 34013KT P6SM -RADZ SCT025 OVC035
     FM232000 34027G37KT P6SM -RADZ SCT025 OVC035
     FM240100 33018G25KT P6SM SCT060 BKN100
     FM240600 30014KT P6SM SCT040=



000
FTUS43 KICT 231728
TAFSLN
TAF
KSLN 231728Z 2318/2418 34028G38KT P6SM -RADZ SCT025 BKN035
     FM240000 33017G26KT P6SM SCT060 BKN100
     FM240500 30014KT P6SM BKN040=



000
FTUS43 KICT 231728
TAFRSL
TAF
KRSL 231728Z 2318/2418 34029G41KT P6SM -RA SCT025 BKN045
      TEMPO 2318/2322 BKN025
     FM232200 34025G33KT P6SM SCT060 BKN100
     FM240200 32016G23KT P6SM SCT040=



000
FTUS43 KICT 231640 AAC
TAFSLN
TAF AMD
KSLN 231640Z 2317/2412 33011KT 6SM -RADZ SCT025 BKN045
     FM231745 34026G35KT 6SM -RADZ SCT025 BKN035
     FM240000 33017G26KT P6SM SCT060 BKN100
     FM240400 29014KT P6SM FEW100 SCT250=



000
FTUS43 KICT 231636 AAB
TAFCNU
TAF AMD
KCNU 231636Z 2317/2412 19013KT P6SM OVC015
     FM231800 19008KT P6SM SCT015 BKN025
     FM240000 33023G30KT P6SM -RA SCT015 BKN025
     FM240500 31017KT P6SM SCT025 BKN060
     FM240900 29013KT P6SM FEW250=



000
FTUS43 KICT 231630 AAC
TAFHUT
TAF AMD
KHUT 231630Z 2317/2412 33011KT 6SM -RADZ SCT025 OVC035
     FM231800 34027G36KT 6SM -RADZ SCT025 BKN035
     FM240000 33016G23KT P6SM SCT060 BKN100
     FM240400 30014KT P6SM FEW100 SCT250=



000
FTUS43 KICT 231628 AAB
TAFICT
TAF AMD
KICT 231628Z 2316/2412 33005KT 6SM -RADZ SCT015 OVC025
     FM231800 34013KT 6SM -RADZ OVC025
     FM232000 34027G36KT 6SM -RA BKN035
     FM240200 33016G23KT P6SM SCT060 BKN100
     FM240600 30014KT P6SM FEW100 SCT250=



000
FTUS43 KICT 231455 AAA
TAFRSL
TAF AMD
KRSL 231455Z 2315/2412 34026G33KT P6SM VCSH SCT025 BKN060
     FM231800 34027G34KT P6SM -RA BKN025
     FM232200 34026G33KT P6SM SCT060 BKN100
     FM240300 32017KT P6SM FEW100 SCT200=



000
FTUS43 KICT 231450 AAB
TAFSLN
TAF AMD
KSLN 231450Z 2315/2412 18005KT 5SM -DZ FEW004 SCT008 OVC015
      TEMPO 2315/2317 3SM -DZ
     FM231800 34026G35KT 6SM -RA BKN025
     FM240000 33017G26KT P6SM SCT060 BKN100
     FM240400 29014KT P6SM FEW100 SCT250=



000
FTUS43 KICT 231446 AAA
TAFCNU
TAF AMD
KCNU 231446Z 2315/2412 17011KT P6SM SCT008 OVC015
      TEMPO 2315/2318 OVC008
     FM231800 18005KT P6SM SCT008 BKN015
     FM240000 33023G30KT P6SM -RA SCT015 BKN025
     FM240500 31017KT P6SM SCT025 BKN060
     FM240900 29013KT P6SM FEW250=



000
FTUS43 KICT 231441 AAB
TAFHUT
TAF AMD
KHUT 231441Z 2315/2412 18006KT P6SM SCT008 BKN020
     FM231800 34027G36KT 6SM -RA BKN025
     FM240000 33016G23KT P6SM SCT060 BKN100
     FM240400 30014KT P6SM FEW100 SCT250=



000
FTUS43 KICT 231437 AAB
TAFICT
TAF AMD
KICT 231437Z 2315/2412 18011KT P6SM SCT009 BKN015
     FM231700 24006KT P6SM BKN015
     FM232000 34027G36KT 6SM -RA BKN025
     FM240200 33016G23KT P6SM SCT060 BKN100
     FM240600 30014KT P6SM FEW100 SCT250=



000
FTUS43 KICT 231317 AAA
TAFHUT
TAF AMD
KHUT 231317Z 2313/2412 17012G22KT P6SM VCSH BKN015
      TEMPO 2313/2315 3SM -DZ BKN009
     FM231500 25011KT P6SM VCSH OVC015
     FM231800 33027G36KT 5SM -RA BKN025
     FM240000 34020G28KT P6SM OVC060
     FM240400 29014KT P6SM FEW100 SCT250=



000
FTUS43 KICT 231316 AAA
TAFSLN
TAF AMD
KSLN 231316Z 2313/2412 16008KT 6SM -DZ VCSH BKN015
      TEMPO 2313/2315 2SM -RA BR
     FM231500 25011KT P6SM VCSH OVC015
     FM231800 33026G35KT 5SM -RA BKN025
     FM240000 34020G28KT P6SM OVC060
     FM240400 29014KT P6SM FEW100 SCT250=



000
FTUS43 KICT 231120
TAFICT
TAF
KICT 231120Z 2312/2412 17015G22KT P6SM BKN015
     FM231600 25012KT P6SM VCSH OVC015
     FM231900 33027G36KT 5SM -RA BKN025
     FM240200 34020G28KT P6SM OVC060
     FM240600 29014KT P6SM FEW100 SCT250=



000
FTUS43 KICT 231120
TAFHUT
TAF
KHUT 231120Z 2312/2412 17012G22KT P6SM BKN015
     FM231500 25011KT P6SM VCSH OVC015
     FM231800 33027G36KT 5SM -RA BKN025
     FM240000 34020G28KT P6SM OVC060
     FM240400 29014KT P6SM FEW100 SCT250=



000
FTUS43 KICT 231120
TAFRSL
TAF
KRSL 231120Z 2312/2412 22011KT P6SM BKN016
     FM231400 33026G33KT P6SM VCSH BKN016 OVC025
     FM231800 35028G35KT P6SM -RA BKN025
     FM232100 34026G33KT P6SM BKN060
     FM240300 33020KT P6SM FEW100 SCT200=



000
FTUS43 KICT 231120
TAFCNU
TAF
KCNU 231120Z 2312/2412 17011KT P6SM -DZ BKN007 OVC015
     FM231800 21012KT 6SM BR VCSH OVC012
     FM232300 32020G28KT P6SM -RA OVC020
     FM240500 31017KT P6SM SCT025 BKN060
     FM240900 29013KT P6SM FEW250=



000
FTUS43 KICT 231120
TAFSLN
TAF
KSLN 231120Z 2312/2412 16012KT P6SM BKN015
     FM231500 25011KT P6SM VCSH OVC015
     FM231800 33026G35KT 5SM -RA BKN025
     FM240000 34020G28KT P6SM OVC060
     FM240400 29014KT P6SM FEW100 SCT250=



000
FTUS43 KICT 230846 AAC
TAFICT
TAF AMD
KICT 230846Z 2309/2406 17015G22KT P6SM BKN015
     FM231500 25012KT 6SM BR OVC008
     FM231700 35023G30KT P6SM OVC015
     FM240200 34020G28KT P6SM OVC060=



000
FTUS43 KICT 230730 AAB
TAFICT
TAF AMD
KICT 230730Z 2308/2406 17015G22KT 6SM -DZ BR BKN004 OVC006
     FM231500 25012KT 6SM BR OVC008
     FM231700 35023G30KT P6SM OVC015
     FM240200 34020G28KT P6SM OVC060=



000
FTUS43 KICT 230714 AAA
TAFHUT
TAF AMD
KHUT 230714Z 2307/2406 17017G25KT 3SM BR BKN004 OVC006
     FM231500 25012KT P6SM OVC008
     FM231600 35026G32KT P6SM OVC015
     FM232300 35020G28KT P6SM OVC050=



000
FTUS43 KICT 230713 AAA
TAFICT
TAF AMD
KICT 230713Z 2307/2406 17015G22KT 2SM -DZ BR BKN004 OVC006
     FM231500 25012KT 6SM BR OVC008
     FM231700 35023G30KT P6SM OVC015
     FM240200 34020G28KT P6SM OVC060=



000
FTUS43 KICT 230533
TAFICT
TAF
KICT 230533Z 2306/2406 17015G22KT P6SM SCT003 OVC006
     FM231500 25012KT 6SM BR OVC008
     FM231700 35023G30KT P6SM OVC015
     FM240200 34020G28KT P6SM OVC060=



000
FTUS43 KICT 230533
TAFHUT
TAF
KHUT 230533Z 2306/2406 17017G25KT P6SM SCT003 OVC006
     FM231500 25012KT P6SM OVC008
     FM231600 35026G32KT P6SM OVC015
     FM232300 35020G28KT P6SM OVC050=



000
FTUS43 KICT 230533
TAFSLN
TAF
KSLN 230533Z 2306/2406 18018G25KT P6SM SCT006 OVC015
      TEMPO 2310/2314 18014KT OVC006
     FM231500 35026G33KT P6SM OVC015
     FM232200 35020G28KT P6SM OVC060=



000
FTUS43 KICT 230533
TAFRSL
TAF
KRSL 230533Z 2306/2406 18018G25KT P6SM SCT006 OVC012
     FM231000 20014KT P6SM SCT006 OVC010
      TEMPO 2311/2313 1SM BR OVC006
     FM231400 34026G33KT P6SM VCSH BKN020
     FM232000 34026G33KT P6SM BKN060=



000
FTUS43 KICT 230533
TAFCNU
TAF
KCNU 230533Z 2306/2406 16011KT P6SM SCT006 OVC015
     FM231600 24012KT 6SM BR OVC012
     FM232200 34020G28KT P6SM OVC020=



000
FTUS43 KICT 230307 AAA
TAFSLN
TAF AMD
KSLN 230307Z 2303/2324 18014G20KT P6SM SCT003 OVC015
      TEMPO 2310/2314 1SM BR OVC004
     FM231500 35026G33KT P6SM OVC015
     FM232200 35020G28KT P6SM OVC060=



000
FTUS43 KICT 230306 AAB
TAFRSL
TAF AMD
KRSL 230306Z 2303/2324 18018G25KT P6SM SCT006 OVC015
     FM230600 18009KT 2SM BR SCT003 OVC006
      TEMPO 2311/2314 1SM BR OVC004
     FM231400 34026G33KT P6SM VCSH BKN015
     FM232000 34026G33KT P6SM BKN060=



000
FTUS43 KICT 230202 AAB
TAFICT
TAF AMD
KICT 230202Z 2302/2324 17012KT 2SM BR SCT003 OVC006
     FM231500 25012KT 6SM BR OVC008
     FM231700 35023G30KT P6SM OVC015=



000
FTUS43 KICT 230202 AAA
TAFHUT
TAF AMD
KHUT 230202Z 2302/2324 17012KT 2SM BR SCT003 OVC006
     FM231500 25012KT 5SM BR OVC008
     FM231600 35023G30KT P6SM OVC015
     FM232300 35020G28KT P6SM OVC050=



000
FTUS43 KICT 230007 AAA
TAFRSL
TAF AMD
KRSL 230007Z 2300/2324 18014G20KT P6SM OVC007
     FM230200 18009KT 5SM BR SCT006 OVC007
     FM230400 18009KT 2SM BR SCT003 OVC006
      TEMPO 2311/2314 1SM BR OVC004
     FM231400 34026G33KT P6SM VCSH BKN015
     FM232000 34026G33KT P6SM BKN060=



000
FTUS43 KICT 222337
TAFICT
TAF
KICT 222337Z 2300/2324 17012KT P6SM OVC015
     FM230300 19012KT 2SM BR SCT003 OVC006
     FM231500 25012KT 6SM BR OVC008
     FM231700 35023G30KT P6SM OVC015=



000
FTUS43 KICT 222337
TAFSLN
TAF
KSLN 222337Z 2300/2324 19014KT P6SM OVC009
     FM230300 18011KT 2SM BR SCT003 OVC006
      TEMPO 2310/2314 1SM BR OVC004
     FM231500 35026G33KT P6SM OVC015
     FM232200 35020G28KT P6SM OVC060=



000
FTUS43 KICT 222337
TAFCNU
TAF
KCNU 222337Z 2300/2324 18016KT P6SM SCT009 OVC015
     FM230300 18011KT 5SM BR VCSH SCT006 OVC009
     FM231600 24012KT 6SM BR OVC012
     FM232200 34020G28KT P6SM OVC020=



000
FTUS43 KICT 222337
TAFRSL
TAF
KRSL 222337Z 2300/2324 18014G20KT P6SM SKC
     FM230200 18009KT 5SM BR SCT006 OVC015
     FM230400 18009KT 2SM BR SCT003 OVC009
      TEMPO 2311/2314 1SM BR OVC004
     FM231400 34026G33KT P6SM VCSH BKN015
     FM232000 34026G33KT P6SM BKN060=



000
FTUS43 KICT 222337
TAFHUT
TAF
KHUT 222337Z 2300/2324 17012KT P6SM SCT004 OVC012
     FM230300 19012KT 2SM BR SCT003 OVC006
     FM231500 25012KT 5SM BR OVC008
     FM231600 35023G30KT P6SM OVC015
     FM232300 35020G28KT P6SM OVC050=



000
FTUS43 KICT 222040 AAB
TAFHUT
TAF AMD
KHUT 222040Z 2221/2318 19015G21KT P6SM SCT004 OVC007
      TEMPO 2221/2301 SCT007 BKN015
     FM230300 19012KT 2SM BR SCT003 OVC006=



000
FTUS43 KICT 222037 AAB
TAFSLN
TAF AMD
KSLN 222037Z 2221/2318 19015G21KT P6SM OVC008
      TEMPO 2221/2224 SCT008 OVC015
     FM230300 18011KT 2SM BR SCT003 OVC006=



000
FTUS43 KICT 221935 AAB
TAFICT
TAF AMD
KICT 221935Z 2220/2318 19015G21KT P6SM SCT015 BKN030
      TEMPO 2220/2222 BKN015
     FM230300 19012KT 2SM BR SCT003 OVC006=



000
FTUS43 KICT 221856 AAA
TAFRSL
TAF AMD
KRSL 221856Z 2219/2318 19017G23KT P6SM SKC
     FM230200 18009KT 5SM BR SCT006 OVC009
     FM230400 18009KT 2SM BR SCT003 OVC006
     FM231400 34026G33KT P6SM VCSH BKN015=



000
FTUS43 KICT 221854 AAA
TAFSLN
TAF AMD
KSLN 221854Z 2219/2318 19017G23KT P6SM SCT009 OVC015
     FM230300 18011KT 2SM BR SCT003 OVC006=



000
FTUS43 KICT 221851 AAA
TAFHUT
TAF AMD
KHUT 221851Z 2219/2318 19013KT 1/2SM FG OVC002
     FM222000 19015G21KT 5SM BR SCT005 OVC008
     FM230300 19012KT 2SM BR SCT003 OVC006=



000
FTUS43 KICT 221848 CCA
TAFICT
TAF COR
KICT 221848Z 2219/2318 19015G21KT P6SM SCT006 BKN009
      TEMPO 2219/2221 BKN006
     FM230300 19012KT 2SM BR SCT003 OVC006=



000
FTUS43 KICT 221845 AAA
TAFICT
TAF AMD
KICT 221845Z 2219/2318 19006KT P6SM SCT006 BKN009
      TEMPO 2219/2221 BKN006
     FM230300 19012KT 2SM BR SCT003 OVC006=



000
FTUS43 KICT 221740
TAFICT
TAF
KICT 221740Z 2218/2318 19006KT 1/4SM FG VV002
      TEMPO 2218/2220 3SM -DZ BR OVC006
     FM222000 19015KT 5SM BR SCT006 OVC009
     FM230300 19012KT 2SM BR SCT003 OVC006=



000
FTUS43 KICT 221740
TAFCNU
TAF
KCNU 221740Z 2218/2318 18016KT P6SM SCT009 OVC015
     FM230300 18011KT 5SM BR VCSH SCT006 OVC009=



000
FTUS43 KICT 221740
TAFHUT
TAF
KHUT 221740Z 2218/2318 19010KT 3/4SM BR OVC002
      TEMPO 2218/2220 1/4SM FG OVC002
     FM222100 19015KT 3SM BR SCT003 OVC006
     FM230300 19012KT 2SM BR SCT003 OVC006=



000
FTUS43 KICT 221740
TAFRSL
TAF
KRSL 221740Z 2218/2318 20014G19KT P6SM SKC
     FM230200 18009KT 5SM BR SCT006 OVC009
     FM230400 18009KT 2SM BR SCT003 OVC006
     FM231400 34026G33KT P6SM VCSH BKN015=



000
FTUS43 KICT 221740
TAFSLN
TAF
KSLN 221740Z 2218/2318 19013KT 6SM BR SCT003 OVC006
      TEMPO 2218/2221 3SM BR
     FM222100 19015KT 5SM BR SCT006 OVC009
     FM230300 18011KT 2SM BR SCT003 OVC006=



000
FTUS43 KICT 221609 AAA
TAFSLN
TAF AMD
KSLN 221609Z 2216/2312 19008KT 4SM BR SCT003 OVC006
      TEMPO 2216/2219 1 1/2SM BR OVC003
     FM222000 20014KT 4SM BR SCT006 OVC009
     FM230200 18011KT 3SM BR SCT004 BKN007=



000
FTUS43 KICT 221600 AAB
TAFCNU
TAF AMD
KCNU 221600Z 2216/2312 18015KT 6SM BR OVC009
     FM221800 18016KT P6SM VCSH SCT009 OVC015=



000
FTUS43 KICT 221544 AAB
TAFHUT
TAF AMD
KHUT 221544Z 2216/2312 18008KT 1/4SM FG OVC002
      TEMPO 2218/2220 2SM BR OVC006
     FM222000 18015KT 4SM BR SCT006 OVC009
     FM230100 18013KT 2SM BR OVC006=



000
FTUS43 KICT 221544 AAB
TAFHUT
TAF AMD
KHUT 221544Z 2216/2312 18008KT 1/4SM FG OVC002
      TEMPO 2218/2220 2SM BR OVC006
     FM222000 18015KT 4SM BR SCT006 OVC009
     FM230100 18013KT 2SM BR OVC006=



000
FTUS43 KICT 221535 AAB
TAFICT
TAF AMD
KICT 221535Z 2216/2312 18006KT 1/4SM -DZ FG VV002
      TEMPO 2217/2219 2SM -DZ BR OVC006
     FM221900 19015KT 4SM BR SCT006 OVC009
     FM230100 17013KT 2SM BR OVC006=



000
FTUS43 KICT 221320 AAA
TAFCNU
TAF AMD
KCNU 221320Z 2213/2312 17013KT 6SM BR VCSH BKN008 OVC012
      TEMPO 2213/2217 3SM BR OVC003
     FM221700 18016KT 4SM TSRA BR BKN017CB
     FM222000 17013KT 4SM BR VCTS BKN007 OVC015CB=



000
FTUS43 KICT 221317 AAA
TAFHUT
TAF AMD
KHUT 221317Z 2213/2312 18008KT 2SM BR BKN003
      TEMPO 2213/2217 1/2SM FG VV002
     FM221800 18014KT P6SM SCT015 BKN030
     FM230300 17012KT 1/2SM FG OVC006=



000
FTUS43 KICT 221235 AAB
TAFICT
TAF AMD
KICT 221235Z 2213/2312 17008KT 1/4SM FG VV002
      TEMPO 2213/2217 2SM -SHRA BR BKN006
     FM222100 18014KT 6SM BR VCSH SCT007 OVC015
     FM230000 17013KT 1/2SM FG OVC004=



000
FTUS43 KICT 221216 AAA
TAFICT
TAF AMD
KICT 221216Z 2212/2312 17008KT 1SM BR BKN004
      TEMPO 2212/2216 2SM -SHRA BR BKN006
     FM222100 18014KT 6SM BR VCSH SCT007 OVC015
     FM230000 17013KT 1/2SM FG OVC004=



000
FTUS43 KICT 221129
TAFICT
TAF
KICT 221129Z 2212/2312 17008KT 2SM BR BKN006
     FM222100 18014KT 6SM BR VCSH SCT007 OVC015
     FM230000 17013KT 1/2SM FG OVC004=



000
FTUS43 KICT 221129
TAFRSL
TAF
KRSL 221129Z 2212/2312 20012KT 1/2SM FG VV002
      TEMPO 2212/2216 3SM BR SCT006 BKN015
     FM221600 20014G19KT P6SM SCT020
     FM230200 18008KT 5SM BR SCT007 BKN010=



000
FTUS43 KICT 221129
TAFCNU
TAF
KCNU 221129Z 2212/2312 18012KT 3SM BR OVC003
     FM221500 17013KT 6SM BR VCSH BKN004 OVC010
      TEMPO 2216/2220 4SM TSRA BR BKN017CB
     FM222000 17013KT 4SM TSRA BR BKN007 OVC015CB=



000
FTUS43 KICT 221129
TAFHUT
TAF
KHUT 221129Z 2212/2312 18008KT 2SM BR BKN003
     FM221800 18014KT P6SM SCT015 BKN030
     FM230300 17012KT 1/2SM FG OVC006=



000
FTUS43 KICT 221129
TAFSLN
TAF
KSLN 221129Z 2212/2312 20012KT 2SM BR OVC003
     FM221800 20013KT P6SM BKN015
     FM230200 18008KT 3SM BR SCT004 BKN007=



000
FTUS43 KICT 221111 AAB
TAFSLN
TAF AMD
KSLN 221111Z 2211/2306 18006KT 2SM BR OVC003
     FM221500 19014KT P6SM BKN020
     FM230200 19010KT P6SM BKN010=



000
FTUS43 KICT 221013 AAB
TAFICT
TAF AMD
KICT 221013Z 2210/2306 14005KT 3SM BR BKN010
      TEMPO 2210/2214 1SM BR BKN006
     FM221500 18012KT 6SM BR OVC010=



000
FTUS43 KICT 220959 AAA
TAFRSL
TAF AMD
KRSL 220959Z 2210/2306 20012KT 1/2SM FG VV002
      TEMPO 2210/2214 3SM BR SCT006 BKN010
     FM221500 19014KT P6SM SCT010
     FM230200 18008KT P6SM BKN010=



000
FTUS43 KICT 220959 AAA
TAFRSL
TAF AMD
KRSL 220959Z 2210/2306 20012KT 1/2SM FG VV002
      TEMPO 2210/2214 3SM BR SCT006 BKN010
     FM221500 19014KT P6SM SCT010
     FM230200 18008KT P6SM BKN010=



000
FTUS43 KICT 220637 AAA
TAFSLN
TAF AMD
KSLN 220637Z 2207/2306 18006KT 1/4SM FG OVC002
      TEMPO 2207/2211 4SM BR BKN006
     FM221500 19014KT P6SM BKN020
     FM230200 19010KT P6SM BKN010=



000
FTUS43 KICT 220635 AAA
TAFICT
TAF AMD
KICT 220635Z 2207/2306 14005KT 1/4SM FG SCT001 OVC002
      TEMPO 2207/2211 4SM BR BKN006
     FM221500 18012KT 6SM BR OVC010=



000
FTUS43 KICT 220531
TAFICT
TAF
KICT 220531Z 2206/2306 14005KT 1/4SM FG SCT001 OVC002
     FM221500 18012KT 6SM BR OVC010=



000
FTUS43 KICT 220531
TAFHUT
TAF
KHUT 220531Z 2206/2306 14005KT 1/2SM FG OVC002
     FM221500 18014KT 6SM BR OVC015
     FM230100 18010KT 6SM BR OVC010=



000
FTUS43 KICT 220531
TAFSLN
TAF
KSLN 220531Z 2206/2306 18006KT 1/4SM FG OVC002
     FM221500 19014KT P6SM BKN020
     FM230200 19010KT P6SM BKN010=



000
FTUS43 KICT 220531
TAFCNU
TAF
KCNU 220531Z 2206/2306 17008KT 2SM BR OVC002
     FM221500 17013KT 6SM BR OVC010=



000
FTUS43 KICT 220531
TAFRSL
TAF
KRSL 220531Z 2206/2306 15008KT 4SM BR OVC004
     FM221500 19014KT P6SM SCT010
     FM230200 18008KT P6SM BKN010=



000
FTUS43 KICT 220441 AAA
TAFCNU
TAF AMD
KCNU 220441Z 2205/2224 17008KT 2SM BR OVC004
     FM221500 17013KT 6SM BR OVC010=



000
FTUS43 KICT 220234 AAA
TAFHUT
TAF AMD
KHUT 220234Z 2203/2224 14005KT 1/4SM -DZ FG SCT001 OVC002
     FM221500 18014KT 6SM BR OVC015=



000
FTUS43 KICT 220232 AAB
TAFICT
TAF AMD
KICT 220232Z 2203/2224 14005KT 1/4SM -DZ FG SCT001 OVC002
     FM221500 18012KT 4SM BR OVC010=



000
FTUS43 KICT 220226 AAA
TAFRSL
TAF AMD
KRSL 220226Z 2202/2224 15008KT 4SM BR OVC004
     FM221500 19014KT P6SM SCT010=



000
FTUS43 KICT 220114 AAA
TAFSLN
TAF AMD
KSLN 220114Z 2201/2224 15006KT 1/4SM FG OVC003
     FM221500 19014KT P6SM SCT020=



000
FTUS43 KICT 212333
TAFRSL
TAF
KRSL 212333Z 2200/2224 15008KT P6SM SCT009 OVC012
     FM220700 20008KT 2SM BR OVC008
     FM221500 19014KT P6SM SCT010=



000
FTUS43 KICT 212333
TAFCNU
TAF
KCNU 212333Z 2200/2224 13007KT 4SM -DZ SCT009 OVC015
     FM220300 17005KT 2SM BR SCT006 OVC009
     FM221500 17013KT 6SM BR OVC010=



000
FTUS43 KICT 212333
TAFHUT
TAF
KHUT 212333Z 2200/2224 14005KT 1/4SM -DZ FG SCT001 OVC002
     FM220300 17005KT 1SM BR SCT003 OVC006
     FM221500 18014KT 6SM BR OVC015=



000
FTUS43 KICT 212333
TAFICT
TAF
KICT 212333Z 2200/2224 14005KT 1/2SM -DZ FG SCT001 OVC003
     FM220300 17005KT 2SM BR SCT003 OVC006
     FM221500 18012KT 4SM BR OVC010=



000
FTUS43 KICT 212333
TAFSLN
TAF
KSLN 212333Z 2200/2224 15006KT 2SM -DZ SCT003 OVC005
     FM221500 19014KT P6SM SCT020=



000
FTUS43 KICT 212148 AAA
TAFCNU
TAF AMD
KCNU 212148Z 2122/2218 13007KT 4SM -DZ SCT009 OVC015
     FM220300 17005KT 2SM BR SCT006 OVC009=



000
FTUS43 KICT 212148 AAA
TAFCNU
TAF AMD
KCNU 212148Z 2122/2218 13007KT 4SM -DZ SCT009 OVC015
     FM220300 17005KT 2SM BR SCT006 OVC009=



000
FTUS43 KICT 212145 AAA
TAFRSL
TAF AMD
KRSL 212145Z 2122/2218 15008KT P6SM SCT009 OVC015
     FM220900 20008KT P6SM SCT009=



000
FTUS43 KICT 212145 AAA
TAFRSL
TAF AMD
KRSL 212145Z 2122/2218 15008KT P6SM SCT009 OVC015
     FM220900 20008KT P6SM SCT009=



000
FTUS43 KICT 212143 AAB
TAFHUT
TAF AMD
KHUT 212143Z 2122/2218 14005KT 1/4SM -DZ FG SCT001 OVC003
     FM220300 17005KT 2SM BR SCT003 OVC006=



000
FTUS43 KICT 212143 AAB
TAFHUT
TAF AMD
KHUT 212143Z 2122/2218 14005KT 1/4SM -DZ FG SCT001 OVC003
     FM220300 17005KT 2SM BR SCT003 OVC006=



000
FTUS43 KICT 212142 AAC
TAFICT
TAF AMD
KICT 212142Z 2122/2218 14005KT 1/2SM -DZ FG SCT001 OVC003
     FM220300 17005KT 2SM BR SCT003 OVC006=



000
FTUS43 KICT 212142 AAC
TAFICT
TAF AMD
KICT 212142Z 2122/2218 14005KT 1/2SM -DZ FG SCT001 OVC003
     FM220300 17005KT 2SM BR SCT003 OVC006=



000
FTUS43 KICT 211943 AAA
TAFHUT
TAF AMD
KHUT 211943Z 2120/2218 14005KT 1/4SM -DZ FG SCT001 OVC003
     FM220300 17005KT 1SM BR SCT003 OVC005=



000
FTUS43 KICT 211943 AAB
TAFICT
TAF AMD
KICT 211943Z 2120/2218 14005KT 1/4SM -DZ FG SCT001 OVC003
     FM220300 17005KT 1SM BR SCT003 OVC005=



000
FTUS43 KICT 211733
TAFICT
TAF
KICT 211733Z 2118/2218 12005KT 1/4SM -DZ FG SCT001 OVC003
     FM220000 17005KT 1SM BR SCT003 OVC005=



000
FTUS43 KICT 211733
TAFSLN
TAF
KSLN 211733Z 2118/2218 13005KT P6SM SCT006 OVC009
     FM212000 15006KT 2SM -DZ SCT003 OVC006=



000
FTUS43 KICT 211733
TAFCNU
TAF
KCNU 211733Z 2118/2218 12007KT 4SM -DZ VCSH SCT009 OVC011
     FM220000 17005KT 2SM BR SCT006 OVC009=



000
FTUS43 KICT 211733
TAFRSL
TAF
KRSL 211733Z 2118/2218 VRB03KT P6SM SCT009
     FM211900 12004KT P6SM SCT006 OVC009
     FM220900 20008KT P6SM SCT009=



000
FTUS43 KICT 211733
TAFHUT
TAF
KHUT 211733Z 2118/2218 10005KT 1 1/2SM -DZ BR SCT001 OVC003
     FM220000 17005KT 1SM BR SCT003 OVC005=



000
FTUS43 KICT 211546 AAA
TAFRSL
TAF AMD
KRSL 211546Z 2116/2212 10005KT P6SM FEW007 SCT011
     FM211700 15005KT P6SM SCT007 OVC011
     FM220000 13007KT 4SM BR SCT004 BKN015
     FM220900 20009KT P6SM SCT100=



000
FTUS43 KICT 211540 AAA
TAFSLN
TAF AMD
KSLN 211540Z 2116/2212 09005KT P6SM SCT007
     FM211700 10006KT 6SM BR SCT005 OVC007
     FM211900 13007KT 2SM -DZ SCT003 OVC005
     FM220600 19006KT 5SM BR BKN025
     FM220900 19009KT P6SM SCT050 SCT100=



000
FTUS43 KICT 211535 AAC
TAFICT
TAF AMD
KICT 211535Z 2116/2212 11006KT 1 1/2SM -DZ SCT003 OVC005
     FM220300 17004KT 1/2SM FG OVC004=



000
FTUS43 KICT 211440 AAB
TAFCNU
TAF AMD
KCNU 211440Z 2115/2212 10007KT P6SM OVC006
     FM211600 10007KT 2SM -DZ VCSH SCT003 OVC005
     FM220300 17004KT 1/2SM FG OVC004=



000
FTUS43 KICT 211420 AAB
TAFHUT
TAF AMD
KHUT 211420Z 2114/2212 08007KT P6SM OVC006
     FM211600 12007KT 2SM -DZ BR SCT004 OVC006
     FM220300 VRB03KT 1/2SM FG OVC004=



000
FTUS43 KICT 211339 AAA
TAFHUT
TAF AMD
KHUT 211339Z 2114/2212 08007KT P6SM BKN018
     FM211700 12007KT 2SM -DZ BR OVC007
     FM220300 VRB03KT 1/2SM FG OVC004=



000
FTUS43 KICT 211247 AAB
TAFICT
TAF AMD
KICT 211247Z 2113/2212 09007KT P6SM BKN007 OVC015
     FM211700 12007KT 2SM -DZ VCSH OVC005
     FM220300 17004KT 1/2SM FG OVC004=



000
FTUS43 KICT 211224 AAA
TAFCNU
TAF AMD
KCNU 211224Z 2112/2212 08007KT P6SM SCT008 OVC015
      TEMPO 2112/2115 BKN008
     FM211500 10007KT 4SM -DZ VCSH OVC008
     FM211700 12007KT 2SM -DZ VCSH OVC005
     FM220300 17004KT 1/2SM FG OVC004=



000
FTUS43 KICT 211120
TAFICT
TAF
KICT 211120Z 2112/2212 08007KT P6SM BKN015 OVC050
     FM211500 09007KT P6SM -DZ VCSH OVC008
     FM211700 12007KT 2SM -DZ VCSH OVC005
     FM220300 17004KT 1/2SM FG OVC004=



000
FTUS43 KICT 211120
TAFHUT
TAF
KHUT 211120Z 2112/2212 08007KT P6SM SCT025 BKN050
     FM211400 09007KT P6SM SCT008 BKN025
     FM211700 12007KT 2SM -DZ BR OVC007
     FM220300 VRB03KT 1/2SM FG OVC004=



000
FTUS43 KICT 211120
TAFRSL
TAF
KRSL 211120Z 2112/2212 05007KT P6SM BKN070
     FM211700 15005KT P6SM OVC015
     FM220000 13007KT 4SM BR SCT004 BKN015
     FM220900 20009KT P6SM SCT100=



000
FTUS43 KICT 211120
TAFSLN
TAF
KSLN 211120Z 2112/2212 05007KT P6SM BKN070
     FM211600 15005KT P6SM OVC015
     FM212000 14007KT 4SM BR OVC008
     FM220000 13007KT 2SM -DZ BKN005
     FM220600 19006KT 5SM BR BKN025
     FM220900 19009KT P6SM SCT050 SCT100=



000
FTUS43 KICT 211120
TAFCNU
TAF
KCNU 211120Z 2112/2212 08007KT P6SM OVC015
     FM211500 10007KT 4SM -DZ VCSH OVC008
     FM211700 12007KT 2SM -DZ VCSH OVC005
     FM220300 17004KT 1/2SM FG OVC004=



000
FTUS43 KICT 210540
TAFRSL
TAF
KRSL 210540Z 2106/2206 13009KT P6SM SCT150
     FM211100 07007KT P6SM BKN015
     FM211700 15005KT P6SM OVC008=



000
FTUS43 KICT 210540
TAFSLN
TAF
KSLN 210540Z 2106/2206 11009KT P6SM SCT150
     FM211100 07007KT P6SM BKN015
     FM211700 15005KT P6SM OVC008=



000
FTUS43 KICT 210540
TAFHUT
TAF
KHUT 210540Z 2106/2206 09009KT P6SM BKN150
     FM211000 08009KT P6SM BKN035
     FM211100 08007KT P6SM OVC025
     FM211400 09007KT P6SM OVC008
     FM211700 12007KT 2SM -DZ BR OVC005=



000
FTUS43 KICT 210540
TAFICT
TAF
KICT 210540Z 2106/2206 09009KT P6SM BKN150
     FM211000 08009KT P6SM BKN035
     FM211100 08007KT P6SM OVC025
     FM211400 09007KT P6SM OVC008
     FM211700 12007KT 2SM -DZ BR OVC005=



000
FTUS43 KICT 210540
TAFCNU
TAF
KCNU 210540Z 2106/2206 08009KT P6SM SCT150
     FM211000 08009KT P6SM BKN040 BKN150
     FM211200 09009KT P6SM OVC008
     FM211400 10009KT 2SM -DZ BR OVC004=



    US Dept of Commerce
    National Oceanic and Atmospheric Administration
    National Weather Service
    1325 East West Highway
    Silver Spring, MD 20910
    Page Author: NWS Internet Services Team
Disclaimer
Information Quality
Credits
Glossary
Privacy Policy
Freedom of Information Act (FOIA)
About Us
Career Opportunities